^^
Grace C. Lehan Memorial Weather Station Historical Data
Daily Summary for January 13, 2022 Units:  Both    English   Metric
Daily Weekly Monthly Yearly
  High: Low: Average:
Temperature: 54 °F /  12.2 °C 46.4 °F /  8 °C 50.6 °F /  10.3 °C
Dew Point: 48.6 °F /  9.2 °C 43.5 °F /  6.4 °C 46.2 °F /  7.9 °C
Humidity: 92.5% 78.4% 85%
Wind Speed: 4.3mph /  6.9km/h - 0.9mph /  1.4km/h
Wind Gust: 13mph /  20.9km/h - -
Wind- - NW
Pressure: 29.83 in /  1010 hPa 29.73 in /  1006.7 hPa -
Precipitation: 0.12 in /  3.05 mm    
 
 
Tabular Data for January 13, 2022
Time Temperature Dew Point Pressure Wind Wind Speed Wind Gust Humidity Rainfall Rate (Hourly) solar
00:04 54 °F /  12.2 °C 48.3 °F /  9.1 °C 29.73in /  1006.7hPa Calm     81% 0.00in /  0mm 0 W/m2
00:09 54 °F /  12.2 °C 48.3 °F /  9.1 °C 29.74in /  1007hPa Calm     81.1% 0.00in /  0mm 0 W/m2
00:14 53.9 °F /  12.2 °C 48.6 °F /  9.2 °C 29.74in /  1007hPa Calm     82% 0.00in /  0mm 0 W/m2
00:19 53.9 °F /  12.2 °C 48.5 °F /  9.2 °C 29.74in /  1007hPa NW 0.2mph /  0.3km/h 3mph /  4.8km/h 82% 0.00in /  0mm 0 W/m2
00:24 53.9 °F /  12.2 °C 48.5 °F /  9.2 °C 29.74in /  1007hPa NW 0.2mph /  0.3km/h 3mph /  4.8km/h 82% 0.00in /  0mm 0 W/m2
00:29 53.8 °F /  12.1 °C 48.4 °F /  9.1 °C 29.74in /  1007hPa Calm   3mph /  4.8km/h 82% 0.00in /  0mm 0 W/m2
00:34 53.8 °F /  12.1 °C 48.1 °F /  8.9 °C 29.74in /  1007hPa Calm   3mph /  4.8km/h 81.2% 0.00in /  0mm 0 W/m2
00:39 53.7 °F /  12.1 °C 48 °F /  8.9 °C 29.74in /  1007hPa NW 0.2mph /  0.3km/h 3mph /  4.8km/h 81% 0.00in /  0mm 0 W/m2
00:44 53.7 °F /  12.1 °C 47.9 °F /  8.8 °C 29.74in /  1007hPa Calm   3mph /  4.8km/h 80.9% 0.00in /  0mm 0 W/m2
00:49 53.6 °F /  12 °C 47.6 °F /  8.7 °C 29.74in /  1007hPa Calm   3mph /  4.8km/h 80% 0.00in /  0mm 0 W/m2
00:54 53.6 °F /  12 °C 47.6 °F /  8.7 °C 29.74in /  1007hPa Calm   3mph /  4.8km/h 80% 0.00in /  0mm 0 W/m2
00:59 53.6 °F /  12 °C 47.6 °F /  8.7 °C 29.74in /  1007hPa NW 0.1mph /  0.2km/h 3mph /  4.8km/h 80% 0.00in /  0mm 0 W/m2
01:04 53.6 °F /  12 °C 47.6 °F /  8.7 °C 29.74in /  1007hPa Calm   3mph /  4.8km/h 80% 0.00in /  0mm 0 W/m2
01:09 53.6 °F /  12 °C 47.6 °F /  8.7 °C 29.74in /  1007hPa Calm   2mph /  3.2km/h 80% 0.00in /  0mm 0 W/m2
01:14 53.6 °F /  12 °C 47.6 °F /  8.7 °C 29.74in /  1007hPa NW 0.1mph /  0.2km/h 2mph /  3.2km/h 80% 0.00in /  0mm 0 W/m2
01:19 53.6 °F /  12 °C 47.6 °F /  8.7 °C 29.74in /  1007hPa Calm   2mph /  3.2km/h 80% 0.00in /  0mm 0 W/m2
01:24 53.6 °F /  12 °C 47.5 °F /  8.6 °C 29.74in /  1007hPa Calm   2mph /  3.2km/h 79.6% 0.00in /  0mm 0 W/m2
01:29 53.6 °F /  12 °C 47.1 °F /  8.4 °C 29.74in /  1007hPa NW 0.1mph /  0.2km/h 2mph /  3.2km/h 78.6% 0.00in /  0mm 0 W/m2
01:34 53.6 °F /  12 °C 47.1 °F /  8.4 °C 29.74in /  1007hPa Calm   2mph /  3.2km/h 78.4% 0.00in /  0mm 0 W/m2
01:39 53.6 °F /  12 °C 47.3 °F /  8.5 °C 29.74in /  1007hPa Calm     79% 0.00in /  0mm 0 W/m2
01:44 53.7 °F /  12.1 °C 47.3 °F /  8.5 °C 29.74in /  1007hPa Calm     79% 0.00in /  0mm 0 W/m2
01:49 53.6 °F /  12 °C 47.3 °F /  8.5 °C 29.75in /  1007.3hPa NW 0.1mph /  0.2km/h 1mph /  1.6km/h 79% 0.00in /  0mm 0 W/m2
01:54 53.6 °F /  12 °C 47.3 °F /  8.5 °C 29.75in /  1007.3hPa Calm   1mph /  1.6km/h 79% 0.00in /  0mm 0 W/m2
01:59 53.6 °F /  12 °C 47.3 °F /  8.5 °C 29.74in /  1007hPa NW 0.1mph /  0.2km/h 2mph /  3.2km/h 79% 0.00in /  0mm 0 W/m2
02:04 53.6 °F /  12 °C 47.3 °F /  8.5 °C 29.75in /  1007.3hPa Calm   2mph /  3.2km/h 79.1% 0.00in /  0mm 0 W/m2
02:09 53.6 °F /  12 °C 47.4 °F /  8.6 °C 29.75in /  1007.3hPa NW 0.3mph /  0.5km/h 4mph /  6.4km/h 79.3% 0.00in /  0mm 0 W/m2
02:14 53.5 °F /  11.9 °C 47.4 °F /  8.6 °C 29.75in /  1007.3hPa Calm   4mph /  6.4km/h 79.6% 0.00in /  0mm 0 W/m2
02:19 53.5 °F /  11.9 °C 47.2 °F /  8.4 °C 29.75in /  1007.3hPa Calm   4mph /  6.4km/h 79.2% 0.00in /  0mm 0 W/m2
02:24 53.5 °F /  11.9 °C 47.2 °F /  8.4 °C 29.75in /  1007.3hPa Calm   4mph /  6.4km/h 79% 0.00in /  0mm 0 W/m2
02:29 53.5 °F /  11.9 °C 47.3 °F /  8.5 °C 29.75in /  1007.3hPa Calm   4mph /  6.4km/h 79.3% 0.00in /  0mm 0 W/m2
02:34 53.5 °F /  11.9 °C 47.4 °F /  8.6 °C 29.75in /  1007.3hPa Calm   4mph /  6.4km/h 79.8% 0.00in /  0mm 0 W/m2
02:39 53.5 °F /  11.9 °C 47.5 °F /  8.6 °C 29.75in /  1007.3hPa Calm     80% 0.00in /  0mm 0 W/m2
02:44 53.5 °F /  11.9 °C 47.5 °F /  8.6 °C 29.75in /  1007.3hPa Calm     80% 0.00in /  0mm 0 W/m2
02:49 53.5 °F /  11.9 °C 47.5 °F /  8.6 °C 29.75in /  1007.3hPa Calm     80% 0.00in /  0mm 0 W/m2
02:54 53.4 °F /  11.9 °C 47.6 °F /  8.7 °C 29.75in /  1007.3hPa Calm     80.7% 0.00in /  0mm 0 W/m2
02:59 53.4 °F /  11.9 °C 47.4 °F /  8.6 °C 29.75in /  1007.3hPa Calm     80% 0.00in /  0mm 0 W/m2
03:04 53.3 °F /  11.8 °C 47.3 °F /  8.5 °C 29.74in /  1007hPa NW 0.2mph /  0.3km/h 3mph /  4.8km/h 80% 0.00in /  0mm 0 W/m2
03:09 53.3 °F /  11.8 °C 47.3 °F /  8.5 °C 29.75in /  1007.3hPa NW 0.2mph /  0.3km/h 5mph /  8km/h 80% 0.00in /  0mm 0 W/m2
03:14 53.3 °F /  11.8 °C 47 °F /  8.3 °C 29.74in /  1007hPa Calm   5mph /  8km/h 79.1% 0.00in /  0mm 0 W/m2
03:19 53.3 °F /  11.8 °C 47 °F /  8.3 °C 29.75in /  1007.3hPa Calm   5mph /  8km/h 79% 0.00in /  0mm 0 W/m2
03:24 53.2 °F /  11.8 °C 46.9 °F /  8.3 °C 29.75in /  1007.3hPa Calm   5mph /  8km/h 79% 0.00in /  0mm 0 W/m2
03:29 53.2 °F /  11.8 °C 46.9 °F /  8.3 °C 29.75in /  1007.3hPa Calm   5mph /  8km/h 79% 0.00in /  0mm 0 W/m2
03:34 53.2 °F /  11.8 °C 46.9 °F /  8.3 °C 29.75in /  1007.3hPa NW 0.1mph /  0.2km/h 5mph /  8km/h 79% 0.00in /  0mm 0 W/m2
03:39 53.2 °F /  11.8 °C 46.9 °F /  8.3 °C 29.75in /  1007.3hPa NW 0.2mph /  0.3km/h 5mph /  8km/h 79% 0.00in /  0mm 0 W/m2
03:44 53.2 °F /  11.8 °C 46.9 °F /  8.3 °C 29.75in /  1007.3hPa Calm   5mph /  8km/h 79.1% 0.00in /  0mm 0 W/m2
03:49 53.2 °F /  11.8 °C 47.2 °F /  8.4 °C 29.75in /  1007.3hPa Calm   5mph /  8km/h 80% 0.00in /  0mm 0 W/m2
03:54 53.1 °F /  11.7 °C 47 °F /  8.3 °C 29.74in /  1007hPa Calm   5mph /  8km/h 79.5% 0.00in /  0mm 0 W/m2
03:59 53 °F /  11.7 °C 46.8 °F /  8.2 °C 29.74in /  1007hPa Calm   5mph /  8km/h 79.2% 0.00in /  0mm 0 W/m2
04:00 53 °F /  11.7 °C 46.7 °F /  8.2 °C 29.74in /  1007hPa Calm   5mph /  8km/h 79% 0.00in /  0mm 0 W/m2
04:09 53 °F /  11.7 °C 46.9 °F /  8.3 °C 29.75in /  1007.3hPa Calm     79.7% 0.00in /  0mm 0 W/m2
04:14 53 °F /  11.7 °C 47.1 °F /  8.4 °C 29.75in /  1007.3hPa NW 0.5mph /  0.8km/h 6mph /  9.7km/h 80.2% 0.00in /  0mm 0 W/m2
04:19 53 °F /  11.7 °C 46.8 °F /  8.2 °C 29.75in /  1007.3hPa NW 0.5mph /  0.8km/h 6mph /  9.7km/h 79.4% 0.00in /  0mm 0 W/m2
04:24 52.9 °F /  11.6 °C 46.6 °F /  8.1 °C 29.74in /  1007hPa NW 0.9mph /  1.4km/h 6mph /  9.7km/h 79% 0.00in /  0mm 0 W/m2
04:29 52.9 °F /  11.6 °C 46.6 °F /  8.1 °C 29.75in /  1007.3hPa NW 0.2mph /  0.3km/h 6mph /  9.7km/h 79% 0.00in /  0mm 0 W/m2
04:34 52.9 °F /  11.6 °C 46.6 °F /  8.1 °C 29.75in /  1007.3hPa NW 0.7mph /  1.1km/h 6mph /  9.7km/h 79% 0.00in /  0mm 0 W/m2
04:39 52.8 °F /  11.6 °C 46.5 °F /  8.1 °C 29.75in /  1007.3hPa NW 1mph /  1.6km/h 9mph /  14.5km/h 79% 0.00in /  0mm 0 W/m2
04:44 52.8 °F /  11.6 °C 46.5 °F /  8.1 °C 29.75in /  1007.3hPa NW 0.1mph /  0.2km/h 9mph /  14.5km/h 79% 0.00in /  0mm 0 W/m2
04:49 52.8 °F /  11.6 °C 46.5 °F /  8.1 °C 29.75in /  1007.3hPa NW 0.9mph /  1.4km/h 9mph /  14.5km/h 79% 0.00in /  0mm 0 W/m2
04:54 52.7 °F /  11.5 °C 46.4 °F /  8 °C 29.75in /  1007.3hPa NW 2.2mph /  3.5km/h 9mph /  14.5km/h 79% 0.00in /  0mm 0 W/m2
04:59 52.6 °F /  11.4 °C 46.3 °F /  7.9 °C 29.75in /  1007.3hPa NW 0.1mph /  0.2km/h 9mph /  14.5km/h 79% 0.00in /  0mm 0 W/m2
05:04 52.6 °F /  11.4 °C 46.4 °F /  8 °C 29.75in /  1007.3hPa NW 1.6mph /  2.6km/h 9mph /  14.5km/h 79.4% 0.00in /  0mm 0 W/m2
05:09 52.4 °F /  11.3 °C 46 °F /  7.8 °C 29.76in /  1007.7hPa NW 2mph /  3.2km/h 7mph /  11.3km/h 78.7% 0.00in /  0mm 0 W/m2
05:14 52.4 °F /  11.3 °C 46.1 °F /  7.8 °C 29.76in /  1007.7hPa NW 1mph /  1.6km/h 7mph /  11.3km/h 79% 0.00in /  0mm 0 W/m2
05:19 52.3 °F /  11.3 °C 46 °F /  7.8 °C 29.76in /  1007.7hPa NW 0.4mph /  0.6km/h 7mph /  11.3km/h 79% 0.00in /  0mm 0 W/m2
05:24 52.2 °F /  11.2 °C 45.9 °F /  7.7 °C 29.77in /  1008hPa NW 0.8mph /  1.3km/h 7mph /  11.3km/h 79% 0.00in /  0mm 0 W/m2
05:29 52.2 °F /  11.2 °C 45.9 °F /  7.7 °C 29.76in /  1007.7hPa NW 0.3mph /  0.5km/h 7mph /  11.3km/h 79% 0.00in /  0mm 0 W/m2
05:34 52.1 °F /  11.2 °C 45.8 °F /  7.7 °C 29.76in /  1007.7hPa NW 0.1mph /  0.2km/h 7mph /  11.3km/h 79% 0.00in /  0mm 0 W/m2
05:39 52.1 °F /  11.2 °C 46 °F /  7.8 °C 29.76in /  1007.7hPa NW 0.1mph /  0.2km/h 2mph /  3.2km/h 79.5% 0.00in /  0mm 0 W/m2
05:44 52.1 °F /  11.2 °C 46.1 °F /  7.8 °C 29.75in /  1007.3hPa NW 0.1mph /  0.2km/h 3mph /  4.8km/h 80% 0.00in /  0mm 0 W/m2
05:49 52 °F /  11.1 °C 46.1 °F /  7.8 °C 29.76in /  1007.7hPa NW 0.7mph /  1.1km/h 5mph /  8km/h 80.1% 0.00in /  0mm 0 W/m2
05:54 51.9 °F /  11.1 °C 46 °F /  7.8 °C 29.76in /  1007.7hPa NW 0.8mph /  1.3km/h 5mph /  8km/h 80.2% 0.00in /  0mm 0 W/m2
05:59 51.8 °F /  11 °C 45.9 °F /  7.7 °C 29.78in /  1008.4hPa NW 1.4mph /  2.3km/h 7mph /  11.3km/h 80% 0.00in /  0mm 0 W/m2
06:04 51.8 °F /  11 °C 46 °F /  7.8 °C 29.78in /  1008.4hPa Calm   7mph /  11.3km/h 80.6% 0.01in /  0.25mm 0 W/m2
06:09 51.8 °F /  11 °C 46.5 °F /  8.1 °C 29.78in /  1008.4hPa NW 1.1mph /  1.8km/h 4mph /  6.4km/h 82.1% 0.03in /  0.76mm 0 W/m2
06:14 51.6 °F /  10.9 °C 46.8 °F /  8.2 °C 29.77in /  1008hPa NW 0.1mph /  0.2km/h 4mph /  6.4km/h 83.5% 0.03in /  0.76mm 0 W/m2
06:19 51.4 °F /  10.8 °C 46.8 °F /  8.2 °C 29.77in /  1008hPa NW 0.8mph /  1.3km/h 6mph /  9.7km/h 84.3% 0.04in /  1.02mm 0 W/m2
06:24 51.1 °F /  10.6 °C 46.9 °F /  8.3 °C 29.76in /  1007.7hPa NW 0.3mph /  0.5km/h 6mph /  9.7km/h 85.5% 0.04in /  1.02mm 0 W/m2
06:29 50.8 °F /  10.4 °C 46.9 °F /  8.3 °C 29.75in /  1007.3hPa Calm   6mph /  9.7km/h 86.2% 0.04in /  1.02mm 0 W/m2
06:34 50.6 °F /  10.3 °C 46.9 °F /  8.3 °C 29.76in /  1007.7hPa NW 0.5mph /  0.8km/h 6mph /  9.7km/h 87% 0.04in /  1.02mm 0 W/m2
06:39 50.4 °F /  10.2 °C 46.7 °F /  8.2 °C 29.77in /  1008hPa NW 1mph /  1.6km/h 5mph /  8km/h 87.2% 0.04in /  1.02mm 0 W/m2
06:44 50.2 °F /  10.1 °C 46.8 °F /  8.2 °C 29.77in /  1008hPa NW 1mph /  1.6km/h 5mph /  8km/h 88% 0.04in /  1.02mm 0 W/m2
06:49 50.1 °F /  10.1 °C 46.9 °F /  8.3 °C 29.77in /  1008hPa Calm   5mph /  8km/h 88.7% 0.04in /  1.02mm 0 W/m2
06:54 50 °F /  10 °C 46.9 °F /  8.3 °C 29.76in /  1007.7hPa NW 0.4mph /  0.6km/h 6mph /  9.7km/h 89% 0.04in /  1.02mm 5 W/m2
06:59 49.9 °F /  9.9 °C 46.9 °F /  8.3 °C 29.76in /  1007.7hPa NW 0.2mph /  0.3km/h 6mph /  9.7km/h 89.3% 0.04in /  1.02mm 5 W/m2
07:04 49.9 °F /  9.9 °C 47.1 °F /  8.4 °C 29.76in /  1007.7hPa NW 1.2mph /  1.9km/h 7mph /  11.3km/h 90% 0.04in /  1.02mm 5 W/m2
07:09 49.8 °F /  9.9 °C 47 °F /  8.3 °C 29.76in /  1007.7hPa NW 0.7mph /  1.1km/h 7mph /  11.3km/h 90% 0.04in /  1.02mm 0 W/m2
07:14 49.7 °F /  9.8 °C 46.9 °F /  8.3 °C 29.76in /  1007.7hPa NW 0.9mph /  1.4km/h 7mph /  11.3km/h 90% 0.04in /  1.02mm 0 W/m2
07:19 49.7 °F /  9.8 °C 46.9 °F /  8.3 °C 29.76in /  1007.7hPa NNW 0.6mph /  1km/h 7mph /  11.3km/h 90% 0.04in /  1.02mm 0 W/m2
07:24 49.6 °F /  9.8 °C 46.9 °F /  8.3 °C 29.77in /  1008hPa NNW 0.1mph /  0.2km/h 7mph /  11.3km/h 90.3% 0.04in /  1.02mm 5 W/m2
07:29 49.6 °F /  9.8 °C 46.9 °F /  8.3 °C 29.77in /  1008hPa NNW 0.7mph /  1.1km/h 7mph /  11.3km/h 90.4% 0.04in /  1.02mm 5 W/m2
07:34 49.6 °F /  9.8 °C 47.1 °F /  8.4 °C 29.77in /  1008hPa NNW 0.3mph /  0.5km/h 7mph /  11.3km/h 91% 0.04in /  1.02mm 5 W/m2
07:39 49.5 °F /  9.7 °C 47 °F /  8.3 °C 29.77in /  1008hPa NNW 0.8mph /  1.3km/h 6mph /  9.7km/h 91% 0.00in /  0mm 0 W/m2
07:44 49.4 °F /  9.7 °C 46.9 °F /  8.3 °C 29.78in /  1008.4hPa NNW 1.4mph /  2.3km/h 6mph /  9.7km/h 91% 0.00in /  0mm 0 W/m2
07:49 49.4 °F /  9.7 °C 46.9 °F /  8.3 °C 29.79in /  1008.7hPa NNW 0.1mph /  0.2km/h 6mph /  9.7km/h 91% 0.00in /  0mm 0 W/m2
07:54 49.4 °F /  9.7 °C 46.9 °F /  8.3 °C 29.80in /  1009hPa NNW 0.3mph /  0.5km/h 6mph /  9.7km/h 91% 0.00in /  0mm 5 W/m2
07:59 49.4 °F /  9.7 °C 46.9 °F /  8.3 °C 29.80in /  1009hPa NNW 1.2mph /  1.9km/h 6mph /  9.7km/h 91% 0.00in /  0mm 9 W/m2
08:00 49.4 °F /  9.7 °C 46.9 °F /  8.3 °C 29.79in /  1008.7hPa NNW 2mph /  3.2km/h 6mph /  9.7km/h 91% 0.00in /  0mm 9 W/m2
08:09 49.2 °F /  9.6 °C 46.7 °F /  8.2 °C 29.79in /  1008.7hPa NNW 0.5mph /  0.8km/h 4mph /  6.4km/h 91% 0.00in /  0mm 18 W/m2
08:14 49.3 °F /  9.6 °C 46.8 °F /  8.2 °C 29.79in /  1008.7hPa NNW 0.6mph /  1km/h 7mph /  11.3km/h 91% 0.00in /  0mm 19 W/m2
08:19 49.3 °F /  9.6 °C 46.8 °F /  8.2 °C 29.82in /  1009.7hPa NW 3.9mph /  6.3km/h 11mph /  17.7km/h 91% 0.00in /  0mm 18 W/m2
08:24 49.2 °F /  9.6 °C 46.7 °F /  8.2 °C 29.83in /  1010hPa West 3.5mph /  5.6km/h 11mph /  17.7km/h 91% 0.00in /  0mm 11 W/m2
08:29 49.1 °F /  9.5 °C 46.3 °F /  7.9 °C 29.81in /  1009.4hPa WNW 2mph /  3.2km/h 11mph /  17.7km/h 90% 0.00in /  0mm 18 W/m2
08:34 48.9 °F /  9.4 °C 46.1 °F /  7.8 °C 29.81in /  1009.4hPa WNW 3.5mph /  5.6km/h 13mph /  20.9km/h 90% 0.00in /  0mm 35 W/m2
08:39 48.8 °F /  9.3 °C 46 °F /  7.8 °C 29.79in /  1008.7hPa NW 3.4mph /  5.5km/h 13mph /  20.9km/h 90% 0.00in /  0mm 35 W/m2
08:44 48.6 °F /  9.2 °C 45.8 °F /  7.7 °C 29.79in /  1008.7hPa NNW 1.3mph /  2.1km/h 13mph /  20.9km/h 90% 0.00in /  0mm 58 W/m2
08:49 48.6 °F /  9.2 °C 45.9 °F /  7.7 °C 29.79in /  1008.7hPa NW 0.4mph /  0.6km/h 13mph /  20.9km/h 90.4% 0.00in /  0mm 37 W/m2
08:54 48.5 °F /  9.2 °C 45.9 °F /  7.7 °C 29.79in /  1008.7hPa NW 4.3mph /  6.9km/h 13mph /  20.9km/h 90.6% 0.00in /  0mm 32 W/m2
08:59 48.4 °F /  9.1 °C 45.6 °F /  7.6 °C 29.78in /  1008.4hPa NW 2mph /  3.2km/h 13mph /  20.9km/h 90% 0.00in /  0mm 39 W/m2
09:04 48.3 °F /  9.1 °C 45.5 °F /  7.5 °C 29.78in /  1008.4hPa NW 1.5mph /  2.4km/h 13mph /  20.9km/h 90% 0.00in /  0mm 25 W/m2
09:09 48.3 °F /  9.1 °C 45.5 °F /  7.5 °C 29.78in /  1008.4hPa NW 1.1mph /  1.8km/h 5mph /  8km/h 90% 0.00in /  0mm 19 W/m2
09:14 48.2 °F /  9 °C 45.6 °F /  7.6 °C 29.78in /  1008.4hPa NW 1.6mph /  2.6km/h 5mph /  8km/h 90.8% 0.00in /  0mm 23 W/m2
09:19 48.1 °F /  8.9 °C 45.3 °F /  7.4 °C 29.78in /  1008.4hPa NW 2.4mph /  3.9km/h 7mph /  11.3km/h 90% 0.00in /  0mm 37 W/m2
09:24 48.1 °F /  8.9 °C 45.3 °F /  7.4 °C 29.76in /  1007.7hPa NW 0.7mph /  1.1km/h 7mph /  11.3km/h 90% 0.00in /  0mm 37 W/m2
09:29 48.1 °F /  8.9 °C 45.1 °F /  7.3 °C 29.77in /  1008hPa NW 2.4mph /  3.9km/h 8mph /  12.9km/h 89.5% 0.00in /  0mm 21 W/m2
09:34 48 °F /  8.9 °C 44.9 °F /  7.2 °C 29.78in /  1008.4hPa NW 2.1mph /  3.4km/h 9mph /  14.5km/h 89% 0.00in /  0mm 18 W/m2
09:39 48 °F /  8.9 °C 44.9 °F /  7.2 °C 29.78in /  1008.4hPa NW 2.8mph /  4.5km/h 9mph /  14.5km/h 89% 0.02in /  0.51mm 21 W/m2
09:44 47.9 °F /  8.8 °C 44.8 °F /  7.1 °C 29.78in /  1008.4hPa WNW 3.3mph /  5.3km/h 9mph /  14.5km/h 89% 0.03in /  0.76mm 35 W/m2
09:49 47.7 °F /  8.7 °C 44.6 °F /  7 °C 29.79in /  1008.7hPa WNW 3.3mph /  5.3km/h 10mph /  16.1km/h 89% 0.04in /  1.02mm 30 W/m2
09:54 47.4 °F /  8.6 °C 44.3 °F /  6.8 °C 29.79in /  1008.7hPa WNW 1mph /  1.6km/h 10mph /  16.1km/h 89.1% 0.04in /  1.02mm 28 W/m2
09:59 47.1 °F /  8.4 °C 44.3 °F /  6.8 °C 29.79in /  1008.7hPa West 1.3mph /  2.1km/h 10mph /  16.1km/h 89.8% 0.05in /  1.27mm 25 W/m2
10:04 47 °F /  8.3 °C 44.2 °F /  6.8 °C 29.79in /  1008.7hPa NNW 0.6mph /  1km/h 10mph /  16.1km/h 90% 0.06in /  1.52mm 47 W/m2
10:09 46.9 °F /  8.3 °C 44.1 °F /  6.7 °C 29.79in /  1008.7hPa NNW 0.2mph /  0.3km/h 5mph /  8km/h 90% 0.06in /  1.52mm 88 W/m2
10:14 46.9 °F /  8.3 °C 44.4 °F /  6.9 °C 29.78in /  1008.4hPa NNW 0.5mph /  0.8km/h 5mph /  8km/h 90.9% 0.07in /  1.78mm 86 W/m2
10:19 47 °F /  8.3 °C 44.5 °F /  6.9 °C 29.77in /  1008hPa NNW 0.8mph /  1.3km/h 9mph /  14.5km/h 91% 0.07in /  1.78mm 83 W/m2
10:24 47 °F /  8.3 °C 44.5 °F /  6.9 °C 29.77in /  1008hPa NW 2.6mph /  4.2km/h 12mph /  19.3km/h 91% 0.07in /  1.78mm 83 W/m2
10:29 46.8 °F /  8.2 °C 44.4 °F /  6.9 °C 29.77in /  1008hPa NNW 3.1mph /  5km/h 12mph /  19.3km/h 91% 0.07in /  1.78mm 114 W/m2
10:34 46.8 °F /  8.2 °C 44.3 °F /  6.8 °C 29.77in /  1008hPa NNW 0.4mph /  0.6km/h 12mph /  19.3km/h 91% 0.07in /  1.78mm 120 W/m2
10:39 46.8 °F /  8.2 °C 44.3 °F /  6.8 °C 29.77in /  1008hPa NW 2.8mph /  4.5km/h 7mph /  11.3km/h 91% 0.07in /  1.78mm 86 W/m2
10:44 46.7 °F /  8.2 °C 44.2 °F /  6.8 °C 29.78in /  1008.4hPa NW 1.7mph /  2.7km/h 7mph /  11.3km/h 91% 0.07in /  1.78mm 90 W/m2
10:49 46.5 °F /  8.1 °C 44 °F /  6.7 °C 29.78in /  1008.4hPa NW 1.2mph /  1.9km/h 7mph /  11.3km/h 91% 0.07in /  1.78mm 60 W/m2
10:54 46.5 °F /  8.1 °C 44 °F /  6.7 °C 29.78in /  1008.4hPa Calm   7mph /  11.3km/h 91% 0.07in /  1.78mm 30 W/m2
10:59 46.4 °F /  8 °C 43.9 °F /  6.6 °C 29.78in /  1008.4hPa NW 0.6mph /  1km/h 7mph /  11.3km/h 91% 0.07in /  1.78mm 44 W/m2
11:04 46.4 °F /  8 °C 44 °F /  6.7 °C 29.78in /  1008.4hPa NW 0.9mph /  1.4km/h 7mph /  11.3km/h 91.2% 0.07in /  1.78mm 83 W/m2
11:09 46.5 °F /  8.1 °C 44.3 °F /  6.8 °C 29.77in /  1008hPa NW 0.1mph /  0.2km/h 3mph /  4.8km/h 92% 0.02in /  0.51mm 84 W/m2
11:14 46.5 °F /  8.1 °C 44.3 °F /  6.8 °C 29.78in /  1008.4hPa NW 1.1mph /  1.8km/h 5mph /  8km/h 92% 0.03in /  0.76mm 121 W/m2
11:19 46.6 °F /  8.1 °C 44.4 °F /  6.9 °C 29.78in /  1008.4hPa NW 0.1mph /  0.2km/h 5mph /  8km/h 92% 0.03in /  0.76mm 90 W/m2
11:24 46.8 °F /  8.2 °C 44.6 °F /  7 °C 29.78in /  1008.4hPa NW 1mph /  1.6km/h 5mph /  8km/h 92% 0.03in /  0.76mm 86 W/m2
11:29 46.9 °F /  8.3 °C 44.7 °F /  7.1 °C 29.78in /  1008.4hPa NW 0.1mph /  0.2km/h 5mph /  8km/h 92% 0.03in /  0.76mm 121 W/m2
11:34 47.1 °F /  8.4 °C 45 °F /  7.2 °C 29.77in /  1008hPa NW 1.3mph /  2.1km/h 5mph /  8km/h 92.5% 0.03in /  0.76mm 158 W/m2
11:39 47.2 °F /  8.4 °C 45.1 °F /  7.3 °C 29.77in /  1008hPa WNW 2.7mph /  4.3km/h 5mph /  8km/h 92.2% 0.01in /  0.25mm 113 W/m2
11:44 47.1 °F /  8.4 °C 44.9 °F /  7.2 °C 29.78in /  1008.4hPa WNW 2.1mph /  3.4km/h 9mph /  14.5km/h 92% 0.01in /  0.25mm 120 W/m2
11:49 47.1 °F /  8.4 °C 44.9 °F /  7.2 °C 29.78in /  1008.4hPa WNW 0.4mph /  0.6km/h 9mph /  14.5km/h 92% 0.01in /  0.25mm 123 W/m2
11:54 47.3 °F /  8.5 °C 45.1 °F /  7.3 °C 29.78in /  1008.4hPa WNW 0.8mph /  1.3km/h 9mph /  14.5km/h 92% 0.01in /  0.25mm 123 W/m2
11:59 47.3 °F /  8.5 °C 45.1 °F /  7.3 °C 29.77in /  1008hPa WNW 0.4mph /  0.6km/h 9mph /  14.5km/h 92% 0.01in /  0.25mm 134 W/m2
12:00 47.4 °F /  8.6 °C 44.9 °F /  7.2 °C 29.76in /  1007.7hPa WNW 1mph /  1.6km/h 9mph /  14.5km/h 91% 0.01in /  0.25mm 127 W/m2
12:09 47.5 °F /  8.6 °C 45 °F /  7.2 °C 29.76in /  1007.7hPa NW 1.8mph /  2.9km/h 10mph /  16.1km/h 91% 0.01in /  0.25mm 156 W/m2
12:14 47.6 °F /  8.7 °C 44.9 °F /  7.2 °C 29.76in /  1007.7hPa NW 1.6mph /  2.6km/h 10mph /  16.1km/h 90.2% 0.01in /  0.25mm 223 W/m2
12:19 47.8 °F /  8.8 °C 45 °F /  7.2 °C 29.77in /  1008hPa NW 0.6mph /  1km/h 10mph /  16.1km/h 90% 0.01in /  0.25mm 229 W/m2
12:24 48.2 °F /  9 °C 45.2 °F /  7.3 °C 29.76in /  1007.7hPa NNW 1.8mph /  2.9km/h 10mph /  16.1km/h 89.6% 0.01in /  0.25mm 181 W/m2
12:29 48.4 °F /  9.1 °C 45.1 °F /  7.3 °C 29.76in /  1007.7hPa NNW 2.6mph /  4.2km/h 10mph /  16.1km/h 88.5% 0.01in /  0.25mm 206 W/m2
12:34 48.5 °F /  9.2 °C 44.7 °F /  7.1 °C 29.76in /  1007.7hPa NW 2.6mph /  4.2km/h 10mph /  16.1km/h 86.7% 0.01in /  0.25mm 183 W/m2
12:39 48.6 °F /  9.2 °C 44.5 °F /  6.9 °C 29.76in /  1007.7hPa WNW 2.3mph /  3.7km/h 11mph /  17.7km/h 85.7% 0.00in /  0mm 179 W/m2
12:44 48.7 °F /  9.3 °C 44.3 °F /  6.8 °C 29.76in /  1007.7hPa NW 1.3mph /  2.1km/h 11mph /  17.7km/h 84.7% 0.00in /  0mm 162 W/m2
12:49 48.8 °F /  9.3 °C 44.1 °F /  6.7 °C 29.76in /  1007.7hPa NW 3.3mph /  5.3km/h 13mph /  20.9km/h 83.7% 0.00in /  0mm 118 W/m2
12:54 48.8 °F /  9.3 °C 43.9 °F /  6.6 °C 29.76in /  1007.7hPa NW 1.5mph /  2.4km/h 13mph /  20.9km/h 83% 0.00in /  0mm 144 W/m2
12:59 48.9 °F /  9.4 °C 44 °F /  6.7 °C 29.76in /  1007.7hPa WNW 2.5mph /  4km/h 13mph /  20.9km/h 83% 0.00in /  0mm 141 W/m2
13:04 49 °F /  9.4 °C 43.8 °F /  6.6 °C 29.76in /  1007.7hPa WNW 4mph /  6.4km/h 13mph /  20.9km/h 82% 0.00in /  0mm 183 W/m2
13:09 49.1 °F /  9.5 °C 43.5 °F /  6.4 °C 29.75in /  1007.3hPa WNW 2.1mph /  3.4km/h 12mph /  19.3km/h 81% 0.00in /  0mm 183 W/m2
13:14 49.3 °F /  9.6 °C 43.7 °F /  6.5 °C 29.75in /  1007.3hPa WNW 2.3mph /  3.7km/h 12mph /  19.3km/h 81% 0.00in /  0mm 237 W/m2
Hartford County Weather
Compliments of Weather Underground - 2 mb